Time;durP1;ratioP1;P1;durP2;ratioP2;P2;SDS_P1;SDS_P2;PMS_P1;PMS_P2;Temp;Humidity;BMP_temperature;BMP_pressure;BME280_temperature;BME280_humidity;BME280_pressure;Samples;Min_cycle;Max_cycle;Signal;HPM_P1;HPM_P2
2023/08/07 00:01:00;;;;;;;;;2.00;2.00;;;;;20.70;100.00;101694.97;4975421;28;69998;-76
2023/08/07 00:03:25;;;;;;;;;1.00;0.67;;;;;20.63;100.00;101701.38;4975341;28;64090;-77
2023/08/07 00:05:54;;;;;;;;;2.00;0.33;;;;;20.69;100.00;101703.06;4975866;28;64594;-77
2023/08/07 00:08:20;;;;;;;;;1.67;1.67;;;;;20.64;100.00;101695.97;4976167;28;45294;-76
2023/08/07 00:10:45;;;;;;;;;3.33;2.00;;;;;20.56;100.00;101714.00;4975709;28;47436;-77
2023/08/07 00:13:11;;;;;;;;;3.00;2.00;;;;;20.53;100.00;101702.44;4975124;28;45389;-76
2023/08/07 00:15:39;;;;;;;;;2.00;1.00;;;;;20.48;100.00;101694.44;4980911;28;58777;-75
2023/08/07 00:18:04;;;;;;;;;1.00;1.00;;;;;20.46;100.00;101703.41;4996031;28;45172;-75
2023/08/07 00:20:30;;;;;;;;;3.33;1.00;;;;;20.42;100.00;101705.25;4994596;28;73265;-78
2023/08/07 00:22:55;;;;;;;;;1.00;1.00;;;;;20.38;100.00;101704.41;4996168;28;45215;-77
2023/08/07 00:25:20;;;;;;;;;3.00;1.33;;;;;20.49;100.00;101708.75;4996007;28;59501;-77
2023/08/07 00:27:46;;;;;;;;;3.00;1.00;;;;;20.32;100.00;101707.19;4995437;28;60187;-75
2023/08/07 00:30:11;;;;;;;;;1.00;1.00;;;;;20.56;100.00;101711.31;4995171;28;67231;-77
2023/08/07 00:32:37;;;;;;;;;3.00;1.00;;;;;20.29;100.00;101706.34;4996389;28;45297;-77
2023/08/07 00:35:04;;;;;;;;;1.33;1.00;;;;;20.25;100.00;101702.84;4999582;28;45298;-78
2023/08/07 00:37:29;;;;;;;;;2.00;1.33;;;;;20.24;100.00;101708.19;4999987;28;45676;-77
2023/08/07 00:39:55;;;;;;;;;3.33;1.00;;;;;20.20;100.00;101709.19;4999192;28;46387;-77
2023/08/07 00:42:20;;;;;;;;;2.00;1.00;;;;;20.13;100.00;101703.00;4999757;28;45328;-77
2023/08/07 00:44:45;;;;;;;;;3.00;1.00;;;;;20.10;100.00;101703.94;4999667;28;45448;-76
2023/08/07 00:47:11;;;;;;;;;2.00;1.00;;;;;20.11;100.00;101702.13;4998548;28;45986;-76
2023/08/07 00:49:36;;;;;;;;;0.00;0.00;;;;;20.03;100.00;101710.31;5006431;28;46614;-77
2023/08/07 00:52:02;;;;;;;;;2.00;1.00;;;;;19.99;100.00;101708.56;5004417;28;63090;-77
2023/08/07 00:54:27;;;;;;;;;1.33;1.33;;;;;19.95;100.00;101705.94;5004713;28;45191;-77
2023/08/07 00:56:53;;;;;;;;;1.67;1.00;;;;;19.91;100.00;101694.38;4998586;28;45554;-75
2023/08/07 00:59:18;;;;;;;;;1.00;1.00;;;;;19.86;100.00;101707.84;4980925;28;63723;-77
2023/08/07 01:01:44;;;;;;;;;1.00;1.00;;;;;19.80;100.00;101710.59;4981068;28;67361;-76
2023/08/07 01:04:10;;;;;;;;;1.00;1.00;;;;;19.76;100.00;101707.97;4981472;28;45463;-76
2023/08/07 01:06:35;;;;;;;;;3.00;1.33;;;;;19.76;100.00;101708.88;5002204;28;45586;-76
2023/08/07 01:09:00;;;;;;;;;1.00;1.00;;;;;19.78;100.00;101708.88;5002477;28;66537;-77
2023/08/07 01:11:45;;;;;;;;;3.00;1.00;;;;;19.93;100.00;101703.31;4999150;28;45357;-75
2023/08/07 01:14:44;;;;;;;;;1.00;1.00;;;;;19.84;100.00;101703.41;4985387;28;45342;-76
2023/08/07 01:17:11;;;;;;;;;5.67;1.33;;;;;19.82;100.00;101711.50;4981340;28;45583;-79
2023/08/07 01:19:38;;;;;;;;;1.00;1.00;;;;;19.91;100.00;101706.88;4992198;28;47516;-76
2023/08/07 01:22:13;;;;;;;;;1.00;1.00;;;;;19.87;100.00;101709.63;4981339;28;45219;-76
2023/08/07 01:24:41;;;;;;;;;1.00;1.00;;;;;19.81;100.00;101706.13;4979071;28;45274;-76
2023/08/07 01:27:19;;;;;;;;;1.00;1.00;;;;;19.76;100.00;101706.22;4979351;28;45539;-77
2023/08/07 01:29:52;;;;;;;;;4.67;1.67;;;;;19.79;100.00;101703.47;4978465;28;47646;-76
2023/08/07 01:32:26;;;;;;;;;1.00;1.00;;;;;19.73;100.00;101700.00;4979538;28;45365;-77
2023/08/07 01:34:53;;;;;;;;;1.00;1.00;;;;;19.83;100.00;101699.84;4961408;28;45359;-76
2023/08/07 01:37:18;;;;;;;;;2.67;1.00;;;;;19.79;100.00;101695.44;4961301;28;56155;-77
2023/08/07 01:39:46;;;;;;;;;3.67;1.00;;;;;19.88;100.00;101689.97;4978344;28;70729;-77
2023/08/07 01:42:11;;;;;;;;;1.00;1.00;;;;;19.97;100.00;101699.66;4961018;28;57074;-76
2023/08/07 01:44:37;;;;;;;;;2.00;2.00;;;;;19.86;100.00;101697.09;4978351;28;45327;-76
2023/08/07 01:47:03;;;;;;;;;1.33;1.33;;;;;19.81;100.00;101707.00;4978074;28;45548;-77
2023/08/07 01:49:28;;;;;;;;;2.00;1.67;;;;;19.88;100.00;101705.16;4978546;28;47906;-76
2023/08/07 01:51:54;;;;;;;;;1.67;1.33;;;;;19.84;100.00;101700.72;4976581;28;66877;-78
2023/08/07 01:54:19;;;;;;;;;3.33;2.00;;;;;19.86;100.00;101709.63;4978240;28;63663;-77
2023/08/07 01:56:44;;;;;;;;;2.00;2.00;;;;;19.79;100.00;101716.88;4978191;28;63661;-77
2023/08/07 01:59:09;;;;;;;;;1.00;1.00;;;;;19.78;100.00;101709.75;4977727;28;70330;-77
2023/08/07 02:01:35;;;;;;;;;1.67;1.00;;;;;19.79;100.00;101710.63;4977949;28;66335;-77
2023/08/07 02:04:00;;;;;;;;;3.00;2.00;;;;;19.73;100.00;101710.72;4977697;28;58927;-77
2023/08/07 02:06:25;;;;;;;;;1.00;1.00;;;;;19.66;100.00;101706.34;4977967;28;57555;-77
2023/08/07 02:08:51;;;;;;;;;1.67;1.67;;;;;19.47;100.00;101700.28;4977664;28;68806;-78
2023/08/07 02:11:16;;;;;;;;;3.00;1.00;;;;;19.58;100.00;101706.38;4977878;28;67166;-77
2023/08/07 02:13:41;;;;;;;;;3.00;1.67;;;;;19.67;100.00;101709.00;4979370;28;65717;-77
2023/08/07 02:16:07;;;;;;;;;4.33;3.33;;;;;19.68;100.00;101712.56;5140421;22;59007;-77
2023/08/07 02:18:32;;;;;;;;;3.00;2.00;;;;;19.70;100.00;101711.63;5037307;28;59291;-77
2023/08/07 02:20:57;;;;;;;;;3.33;1.67;;;;;19.75;100.00;101708.88;5036669;28;57524;-76
2023/08/07 02:23:23;;;;;;;;;2.33;2.33;;;;;19.70;100.00;101711.63;5036586;28;59486;-77
2023/08/07 02:25:48;;;;;;;;;3.00;3.00;;;;;19.62;100.00;101706.38;5038453;28;45458;-77
2023/08/07 02:28:14;;;;;;;;;1.67;1.67;;;;;19.57;100.00;101710.88;5036471;28;68523;-79
2023/08/07 02:30:39;;;;;;;;;4.00;2.00;;;;;19.70;100.00;101714.31;5036968;28;66846;-77
2023/08/07 02:33:04;;;;;;;;;1.00;1.00;;;;;19.51;100.00;101702.03;5036796;28;49325;-77
2023/08/07 02:35:30;;;;;;;;;2.33;1.00;;;;;19.52;100.00;101707.34;5037754;28;50594;-76
2023/08/07 02:37:55;;;;;;;;;1.33;1.33;;;;;19.61;100.00;101709.09;5036098;28;68149;-77
2023/08/07 02:40:20;;;;;;;;;3.00;1.00;;;;;19.48;100.00;101702.03;5036644;28;65838;-77
2023/08/07 02:42:46;;;;;;;;;3.33;2.00;;;;;19.35;100.00;101702.19;5037896;28;45253;-78
2023/08/07 02:45:11;;;;;;;;;1.00;1.00;;;;;19.28;100.00;101699.59;5036926;28;47944;-76
2023/08/07 02:47:36;;;;;;;;;3.00;2.00;;;;;19.46;100.00;101701.19;5035894;28;67001;-77
2023/08/07 02:50:02;;;;;;;;;2.67;1.00;;;;;19.60;100.00;101709.97;5036883;28;45307;-76
2023/08/07 02:52:27;;;;;;;;;2.00;2.00;;;;;19.68;100.00;101707.22;5036967;28;45300;-77
2023/08/07 02:54:53;;;;;;;;;3.00;1.00;;;;;19.70;100.00;101711.63;5036556;28;45587;-77
2023/08/07 02:57:18;;;;;;;;;2.33;2.00;;;;;19.60;100.00;101709.97;5036755;28;46666;-77
2023/08/07 02:59:44;;;;;;;;;2.67;2.00;;;;;19.67;100.00;101705.44;5036031;28;63004;-78
2023/08/07 03:02:09;;;;;;;;;2.00;2.00;;;;;19.63;100.00;101701.91;5036979;28;45399;-76
2023/08/07 03:04:34;;;;;;;;;3.00;2.00;;;;;19.64;100.00;101711.69;5036769;28;59454;-75
2023/08/07 03:07:00;;;;;;;;;5.00;2.00;;;;;19.47;100.00;101709.19;5034809;28;71083;-77
2023/08/07 03:09:25;;;;;;;;;5.00;2.00;;;;;19.36;100.00;101711.13;5037275;28;45279;-77
2023/08/07 03:11:50;;;;;;;;;3.33;2.00;;;;;19.34;100.00;101707.59;5035622;28;63245;-76
2023/08/07 03:14:16;;;;;;;;;4.00;1.00;;;;;19.33;100.00;101712.06;5037288;28;45538;-77
2023/08/07 03:16:41;;;;;;;;;3.00;3.00;;;;;19.26;100.00;101713.00;5035427;28;47625;-76
2023/08/07 03:19:06;;;;;;;;;1.00;1.00;;;;;19.26;100.00;101709.44;5036620;28;45521;-76
2023/08/07 03:21:32;;;;;;;;;4.00;2.67;;;;;19.28;100.00;101710.31;5036576;28;45270;-77
2023/08/07 03:23:57;;;;;;;;;2.00;2.00;;;;;19.24;100.00;101711.25;5036379;28;54145;-77
2023/08/07 03:26:22;;;;;;;;;2.33;2.33;;;;;19.18;100.00;101716.69;5035411;28;68742;-76
2023/08/07 03:28:48;;;;;;;;;2.00;2.00;;;;;19.19;100.00;101713.09;5037111;28;45752;-77
2023/08/07 03:31:14;;;;;;;;;1.00;1.00;;;;;19.14;100.00;101718.50;5035969;28;45510;-76
2023/08/07 03:33:39;;;;;;;;;2.00;2.00;;;;;19.27;100.00;101722.81;5036984;28;45592;-77
2023/08/07 03:36:04;;;;;;;;;2.00;2.00;;;;;19.35;100.00;101728.09;5036572;28;46313;-76
2023/08/07 03:38:30;;;;;;;;;2.67;2.00;;;;;19.54;100.00;101729.63;5035728;28;69816;-77
2023/08/07 03:40:55;;;;;;;;;2.67;2.00;;;;;19.55;100.00;101730.56;5036214;28;58841;-78
2023/08/07 03:43:20;;;;;;;;;5.67;2.00;;;;;19.56;100.00;101726.97;5035840;28;63208;-77
2023/08/07 03:45:47;;;;;;;;;4.33;2.33;;;;;19.63;100.00;101726.91;5036183;28;47236;-76
2023/08/07 03:48:12;;;;;;;;;4.00;3.00;;;;;19.79;100.00;101721.34;5035522;28;66679;-76
2023/08/07 03:50:38;;;;;;;;;1.33;1.33;;;;;19.85;100.00;101718.59;5036035;28;60355;-76
2023/08/07 03:53:06;;;;;;;;;2.00;2.00;;;;;19.79;100.00;101719.56;5036601;28;45464;-78
2023/08/07 03:55:32;;;;;;;;;1.67;1.67;;;;;19.84;100.00;101725.75;5029354;28;46928;-76
2023/08/07 03:57:57;;;;;;;;;3.67;2.00;;;;;19.82;100.00;101724.00;5034586;28;57963;-77
2023/08/07 04:00:22;;;;;;;;;1.00;1.00;;;;;19.66;100.00;101723.31;5036435;28;45577;-75
2023/08/07 04:02:48;;;;;;;;;4.00;3.00;;;;;19.61;100.00;101719.81;5035697;28;59706;-77
2023/08/07 04:05:13;;;;;;;;;3.00;3.00;;;;;19.65;100.00;101726.88;5035217;28;67321;-77
2023/08/07 04:07:38;;;;;;;;;1.33;1.33;;;;;19.64;100.00;101725.09;5035146;28;63736;-76
2023/08/07 04:10:04;;;;;;;;;2.67;2.00;;;;;19.52;100.00;101725.22;5035322;28;58537;-77
2023/08/07 04:12:29;;;;;;;;;4.00;2.00;;;;;19.55;100.00;101727.88;5036187;28;45418;-76
2023/08/07 04:14:55;;;;;;;;;4.00;1.00;;;;;19.49;100.00;101726.13;5035296;28;67850;-77
2023/08/07 04:17:20;;;;;;;;;1.00;1.00;;;;;19.62;100.00;101729.59;5015306;28;58026;-76
2023/08/07 04:19:45;;;;;;;;;3.00;3.00;;;;;19.70;100.00;101726.81;5016054;28;45373;-77
2023/08/07 04:22:11;;;;;;;;;3.00;2.33;;;;;19.86;100.00;101728.38;5016564;28;45563;-78
2023/08/07 04:24:36;;;;;;;;;2.00;2.00;;;;;19.84;100.00;101723.06;5017494;28;66902;-77
2023/08/07 04:27:02;;;;;;;;;4.33;2.00;;;;;19.85;100.00;101732.00;4999412;28;45398;-77
2023/08/07 04:29:28;;;;;;;;;2.67;2.00;;;;;19.92;100.00;101727.41;5016499;28;45595;-77
2023/08/07 04:31:53;;;;;;;;;2.33;1.00;;;;;19.95;100.00;101727.41;5005252;28;59482;-77
2023/08/07 04:34:18;;;;;;;;;2.00;2.00;;;;;19.72;100.00;101727.72;5015738;28;65340;-77
2023/08/07 04:36:44;;;;;;;;;4.00;1.33;;;;;19.85;100.00;101729.31;5015604;28;45445;-75
2023/08/07 04:39:09;;;;;;;;;1.67;1.67;;;;;19.93;100.00;101732.78;5015276;28;63170;-76
2023/08/07 04:41:35;;;;;;;;;1.67;1.67;;;;;19.92;100.00;101731.03;5015112;28;58018;-76
2023/08/07 04:44:00;;;;;;;;;3.00;2.00;;;;;19.95;100.00;101736.31;5015401;28;47462;-76
2023/08/07 04:46:26;;;;;;;;;1.33;1.33;;;;;19.95;100.00;101743.47;5015741;28;45463;-76
2023/08/07 04:48:52;;;;;;;;;5.00;2.00;;;;;20.02;100.00;101732.63;5015685;28;45519;-76
2023/08/07 04:51:17;;;;;;;;;4.67;1.00;;;;;19.81;100.00;101743.66;5016337;28;45336;-78
2023/08/07 04:53:43;;;;;;;;;4.67;2.33;;;;;20.01;100.00;101738.03;5013818;28;67897;-77
2023/08/07 04:56:08;;;;;;;;;7.00;5.00;;;;;20.12;100.00;101734.28;5014903;28;65002;-77
2023/08/07 04:58:33;;;;;;;;;3.00;3.00;;;;;20.13;100.00;101729.81;5014420;28;64554;-77
2023/08/07 05:00:59;;;;;;;;;2.67;2.00;;;;;20.08;100.00;101735.25;5015697;28;45616;-77
2023/08/07 05:03:26;;;;;;;;;4.33;2.67;;;;;20.09;100.00;101744.19;5015017;28;47563;-77
2023/08/07 05:05:58;;;;;;;;;6.67;2.33;;;;;20.17;100.00;101742.28;5015107;28;45155;-78
2023/08/07 05:08:23;;;;;;;;;6.00;3.00;;;;;20.23;100.00;101746.66;5015438;28;45352;-77
2023/08/07 05:10:49;;;;;;;;;3.33;3.33;;;;;20.33;100.00;101751.88;5014825;28;45274;-78
2023/08/07 05:13:14;;;;;;;;;6.00;3.00;;;;;20.45;100.00;101748.09;5014666;28;69748;-77
2023/08/07 05:15:40;;;;;;;;;6.33;3.00;;;;;20.35;100.00;101742.03;5014406;28;65980;-77
2023/08/07 05:18:06;;;;;;;;;3.00;3.00;;;;;20.36;100.00;101746.47;5015548;28;45467;-77
2023/08/07 05:20:31;;;;;;;;;3.67;3.00;;;;;20.44;100.00;101751.72;5018398;28;45506;-75
2023/08/07 05:22:57;;;;;;;;;3.67;3.67;;;;;20.47;100.00;101765.13;5018192;28;46584;-76
2023/08/07 05:25:22;;;;;;;;;4.00;3.00;;;;;20.47;100.00;101756.19;5019036;28;45143;-75
2023/08/07 05:27:47;;;;;;;;;4.00;4.00;;;;;20.50;100.00;101750.75;5017874;28;60365;-76
2023/08/07 05:30:14;;;;;;;;;8.00;5.33;;;;;20.49;100.00;101752.56;5018567;28;60828;-77
2023/08/07 05:32:40;;;;;;;;;6.33;5.67;;;;;20.56;100.00;101754.25;5018087;28;47275;-77
2023/08/07 05:35:06;;;;;;;;;8.00;5.00;;;;;20.58;100.00;101759.59;5018973;28;45282;-77
2023/08/07 05:37:33;;;;;;;;;7.67;4.67;;;;;20.51;100.00;101768.66;5018533;28;45333;-78
2023/08/07 05:39:58;;;;;;;;;10.33;8.00;;;;;20.58;100.00;101755.09;5018358;28;45503;-76
2023/08/07 05:42:23;;;;;;;;;10.00;8.67;;;;;20.30;100.00;101765.34;5017947;28;63131;-75
2023/08/07 05:44:49;;;;;;;;;7.67;6.33;;;;;20.38;100.00;101770.59;5017491;28;66621;-77
2023/08/07 05:47:14;;;;;;;;;9.67;6.33;;;;;20.30;100.00;101776.06;5018654;28;45304;-76
2023/08/07 05:49:39;;;;;;;;;10.00;6.33;;;;;20.32;100.00;101776.94;5018796;28;45377;-77
2023/08/07 05:52:05;;;;;;;;;7.00;6.00;;;;;20.58;100.00;101771.22;5009564;28;55259;-78
2023/08/07 05:54:31;;;;;;;;;11.00;6.00;;;;;20.36;100.00;101783.16;5018490;28;45255;-77
2023/08/07 05:56:56;;;;;;;;;12.00;8.33;;;;;20.37;100.00;101774.19;5017390;28;62852;-77
2023/08/07 05:59:21;;;;;;;;;9.00;6.67;;;;;20.35;100.00;101776.91;5017607;28;60848;-76
2023/08/07 06:01:47;;;;;;;;;8.67;8.67;;;;;20.28;100.00;101782.34;5017181;28;63355;-80
2023/08/07 06:04:12;;;;;;;;;10.33;9.33;;;;;20.30;100.00;101781.44;5011946;28;59160;-81
2023/08/07 06:06:39;;;;;;;;;10.00;8.00;;;;;20.29;100.00;101786.81;4984003;28;56226;-81
2023/08/07 06:09:06;;;;;;;;;10.67;9.33;;;;;20.21;100.00;101784.22;5017123;28;45396;-80
2023/08/07 06:11:31;;;;;;;;;9.00;7.67;;;;;20.23;100.00;101779.72;5018336;28;46688;-80
2023/08/07 06:13:57;;;;;;;;;7.00;7.00;;;;;20.37;100.00;101775.06;4997954;28;45492;-80
2023/08/07 06:16:22;;;;;;;;;10.00;8.00;;;;;20.45;100.00;101782.09;5017043;28;45320;-81
2023/08/07 06:18:48;;;;;;;;;8.67;8.67;;;;;20.72;100.00;101770.09;5017168;28;45492;-81
2023/08/07 06:21:13;;;;;;;;;13.67;8.00;;;;;20.50;100.00;101783.84;5015879;28;47514;-81
2023/08/07 06:23:38;;;;;;;;;12.00;8.00;;;;;20.50;100.00;101782.97;4996031;28;52104;-81
2023/08/07 06:26:04;;;;;;;;;8.67;8.00;;;;;20.59;100.00;101794.44;5017417;28;45548;-80
2023/08/07 06:28:31;;;;;;;;;12.33;9.00;;;;;20.43;100.00;101795.53;5017683;28;45452;-81
2023/08/07 06:31:06;;;;;;;;;7.67;7.67;;;;;20.83;100.00;101800.38;5015466;28;45619;-81
2023/08/07 06:33:33;;;;;;;;;11.00;9.67;;;;;20.96;100.00;101801.91;5005258;28;47243;-82
2023/08/07 06:35:58;;;;;;;;;8.33;8.00;;;;;21.01;100.00;101796.47;5017934;28;45355;-82
2023/08/07 06:38:24;;;;;;;;;11.00;9.33;;;;;21.03;100.00;101791.97;5017311;28;45405;-82
2023/08/07 06:40:49;;;;;;;;;10.67;9.67;;;;;21.11;100.00;101795.41;5003769;28;74889;-81
2023/08/07 06:43:14;;;;;;;;;8.67;7.33;;;;;21.11;100.00;101796.28;5015738;28;66020;-76
2023/08/07 06:45:40;;;;;;;;;14.33;12.00;;;;;21.07;100.00;101793.69;5017063;28;51570;-78
2023/08/07 06:48:05;;;;;;;;;12.00;10.00;;;;;20.98;100.00;101805.44;5019050;28;58386;-77
2023/08/07 06:50:30;;;;;;;;;12.00;10.33;;;;;21.02;100.00;101811.66;5002927;28;47528;-79
2023/08/07 06:52:56;;;;;;;;;14.33;11.00;;;;;21.02;100.00;101817.91;5016763;28;61743;-78
2023/08/07 06:55:22;;;;;;;;;11.67;8.67;;;;;21.01;100.00;101817.97;5017020;28;45566;-81
2023/08/07 06:57:47;;;;;;;;;8.00;6.00;;;;;21.00;100.00;101829.63;4999389;28;45399;-82
2023/08/07 07:00:13;;;;;;;;;13.67;9.33;;;;;20.99;100.00;101822.47;5016306;28;47442;-81
2023/08/07 07:02:38;;;;;;;;;13.67;9.00;;;;;20.81;100.00;101824.53;5016984;28;45258;-80
2023/08/07 07:05:04;;;;;;;;;10.33;7.00;;;;;20.73;100.00;101834.50;5013221;28;65580;-80
2023/08/07 07:07:30;;;;;;;;;10.67;9.67;;;;;20.63;100.00;101835.56;5014876;28;45470;-82
2023/08/07 07:09:57;;;;;;;;;9.00;8.33;;;;;20.79;100.00;101847.84;5016093;28;47338;-78
2023/08/07 07:12:23;;;;;;;;;15.33;9.67;;;;;20.56;100.00;101849.94;5016308;28;45696;-77
2023/08/07 07:14:48;;;;;;;;;9.00;7.33;;;;;20.80;100.00;101844.22;5016474;28;45361;-79
2023/08/07 07:17:13;;;;;;;;;8.67;8.00;;;;;20.91;100.00;101847.63;5015553;28;57656;-77
2023/08/07 07:19:39;;;;;;;;;13.33;10.00;;;;;20.97;100.00;101851.13;5016448;28;47440;-77
2023/08/07 07:22:04;;;;;;;;;11.00;6.33;;;;;20.93;100.00;101851.19;5015518;28;64961;-79
2023/08/07 07:24:30;;;;;;;;;6.00;5.00;;;;;20.86;100.00;101851.31;5014646;28;45454;-79
2023/08/07 07:26:55;;;;;;;;;12.00;8.00;;;;;20.84;100.00;101843.28;5016661;28;50036;-82
2023/08/07 07:29:21;;;;;;;;;8.00;8.00;;;;;20.61;100.00;101846.31;5016211;28;46884;-78
2023/08/07 07:31:47;;;;;;;;;6.33;6.00;;;;;20.70;100.00;101855.13;5015491;28;48072;-80
2023/08/07 07:34:12;;;;;;;;;10.33;8.00;;;;;20.69;100.00;101839.94;5016563;28;45401;-81
2023/08/07 07:36:37;;;;;;;;;8.00;8.00;;;;;20.75;100.00;101856.84;5015727;28;59723;-79
2023/08/07 07:39:03;;;;;;;;;8.67;7.00;;;;;20.75;100.00;101851.47;5015820;28;70761;-78
2023/08/07 07:41:28;;;;;;;;;8.00;8.00;;;;;20.83;100.00;101849.56;5013636;28;66980;-78
2023/08/07 07:43:53;;;;;;;;;9.00;9.00;;;;;20.88;100.00;101841.44;5015867;28;61448;-78
2023/08/07 07:46:19;;;;;;;;;12.00;9.00;;;;;21.02;100.00;101843.91;5016461;28;59804;-79
2023/08/07 07:48:44;;;;;;;;;8.00;8.00;;;;;21.16;100.00;101852.63;5015128;28;46641;-78
2023/08/07 07:51:09;;;;;;;;;10.33;8.33;;;;;21.53;100.00;101843.97;4997486;28;51012;-79
2023/08/07 07:53:35;;;;;;;;;8.00;6.00;;;;;21.65;100.00;101832.97;5014910;28;66097;-78
2023/08/07 07:56:01;;;;;;;;;8.67;5.33;;;;;21.81;100.00;101837.13;5015757;28;45409;-80
2023/08/07 07:58:26;;;;;;;;;9.33;6.67;;;;;21.81;100.00;101836.25;5015235;28;69014;-78
2023/08/07 08:00:53;;;;;;;;;9.67;7.67;;;;;21.78;100.00;101833.59;5015093;28;62707;-79
2023/08/07 08:03:20;;;;;;;;;6.67;5.67;;;;;21.62;100.00;101854.50;5015770;28;45401;-79
2023/08/07 08:05:48;;;;;;;;;9.33;7.00;;;;;21.60;100.00;101854.56;5015386;28;45325;-82
2023/08/07 08:08:13;;;;;;;;;10.67;7.00;;;;;21.57;100.00;101854.63;5014569;28;46411;-79
2023/08/07 08:10:39;;;;;;;;;8.67;7.33;;;;;21.55;100.00;101853.75;5007501;28;65494;-80
2023/08/07 08:13:04;;;;;;;;;6.67;5.00;;;;;21.51;100.00;101862.78;5015437;28;45655;-79
2023/08/07 08:15:30;;;;;;;;;6.33;6.33;;;;;21.44;100.00;101863.81;5019235;28;62725;-80
2023/08/07 08:17:55;;;;;;;;;5.00;5.00;;;;;21.36;100.00;101850.53;5034594;28;47107;-79
2023/08/07 08:20:21;;;;;;;;;5.00;5.00;;;;;21.38;100.00;101861.22;5035809;28;45767;-80
2023/08/07 08:22:46;;;;;;;;;9.00;7.00;;;;;21.32;100.00;101855.97;5035098;28;45392;-76
2023/08/07 08:25:12;;;;;;;;;5.33;2.00;;;;;21.34;100.00;101871.13;5035241;28;45423;-79
2023/08/07 08:27:38;;;;;;;;;4.00;4.00;;;;;21.36;100.00;101863.97;5035525;28;47397;-77
2023/08/07 08:30:04;;;;;;;;;7.67;6.67;;;;;21.41;100.00;101853.09;5033841;28;45335;-80
2023/08/07 08:32:30;;;;;;;;;5.00;5.00;;;;;21.49;100.00;101851.19;5036092;28;45327;-76
2023/08/07 08:34:55;;;;;;;;;7.33;6.00;;;;;21.57;100.00;101857.31;5031214;28;56126;-76
2023/08/07 08:37:21;;;;;;;;;7.33;6.33;;;;;21.25;100.00;101860.50;5033874;28;70114;-78
2023/08/07 08:39:46;;;;;;;;;6.67;5.00;;;;;21.12;100.00;101870.56;5031632;28;45511;-75
2023/08/07 08:42:13;;;;;;;;;4.00;4.00;;;;;21.13;100.00;101868.78;5035459;28;45216;-76
2023/08/07 08:44:39;;;;;;;;;6.67;6.00;;;;;21.23;100.00;101865.03;5034537;28;45417;-78
2023/08/07 08:47:05;;;;;;;;;7.00;6.33;;;;;21.41;100.00;101861.16;5028343;28;47801;-76
2023/08/07 08:49:33;;;;;;;;;5.33;5.33;;;;;21.47;100.00;101863.78;5035497;28;45383;-77
2023/08/07 08:51:58;;;;;;;;;5.67;4.67;;;;;21.33;100.00;101857.75;5034253;28;45517;-78
2023/08/07 08:54:25;;;;;;;;;5.33;4.33;;;;;21.25;100.00;101865.88;5032518;28;61087;-78
2023/08/07 08:56:51;;;;;;;;;4.67;4.67;;;;;21.27;100.00;101858.69;5035883;28;47763;-78
2023/08/07 08:59:18;;;;;;;;;9.00;5.67;;;;;21.24;100.00;101860.53;5035226;28;45499;-77
2023/08/07 09:01:45;;;;;;;;;7.67;6.00;;;;;21.33;100.00;101858.63;5037381;28;45233;-77
2023/08/07 09:04:10;;;;;;;;;7.00;4.00;;;;;21.38;100.00;101859.44;5037988;28;45429;-78
2023/08/07 09:06:35;;;;;;;;;7.00;4.00;;;;;21.43;100.00;101852.19;5053560;28;69443;-77
2023/08/07 09:09:02;;;;;;;;;5.67;4.00;;;;;21.40;100.00;101856.72;5036428;28;66290;-81
2023/08/07 09:11:28;;;;;;;;;6.33;3.33;;;;;21.38;100.00;101859.44;5038556;28;45319;-81
2023/08/07 09:13:54;;;;;;;;;4.33;4.33;;;;;21.51;100.00;101864.56;5037471;28;45400;-78
2023/08/07 09:16:22;;;;;;;;;4.33;4.33;;;;;21.65;100.00;101860.72;5036086;28;46640;-78
2023/08/07 09:18:50;;;;;;;;;5.00;5.00;;;;;21.76;100.00;101859.66;5035067;28;45533;-78
2023/08/07 09:21:16;;;;;;;;;6.00;4.00;;;;;21.84;100.00;101858.59;5037632;28;45398;-78
2023/08/07 09:23:42;;;;;;;;;0.00;0.00;;;;;21.87;100.00;101869.28;5038257;28;45293;-78
2023/08/07 09:26:08;;;;;;;;;7.00;5.00;;;;;21.88;100.00;101860.28;5038267;28;45598;-78
2023/08/07 09:28:33;;;;;;;;;3.33;3.33;;;;;21.94;100.00;101854.81;5038403;28;45379;-78
2023/08/07 09:31:01;;;;;;;;;5.67;3.67;;;;;21.98;100.00;101855.63;5035801;28;45462;-78
2023/08/07 09:33:27;;;;;;;;;4.00;3.00;;;;;22.16;100.00;101846.34;5032046;28;45481;-77
2023/08/07 09:35:53;;;;;;;;;4.67;3.33;;;;;22.21;100.00;101863.25;5031359;28;46875;-78
2023/08/07 09:38:18;;;;;;;;;3.00;3.00;;;;;22.31;100.00;101861.25;5031336;28;45502;-78
2023/08/07 09:40:44;;;;;;;;;4.00;2.67;;;;;22.27;100.00;101857.75;5036354;28;45337;-78
2023/08/07 09:43:10;;;;;;;;;3.00;3.00;;;;;22.27;100.00;101856.88;5038244;28;45415;-78
2023/08/07 09:45:37;;;;;;;;;3.33;3.33;;;;;22.30;100.00;101855.00;5037598;28;48119;-80
2023/08/07 09:48:03;;;;;;;;;4.67;3.67;;;;;22.41;100.00;101858.34;5036926;28;45512;-79
2023/08/07 09:50:30;;;;;;;;;5.00;3.33;;;;;22.43;100.00;101853.81;5038009;28;45400;-80
2023/08/07 09:52:56;;;;;;;;;3.00;2.00;;;;;22.47;100.00;101849.22;5037975;28;45422;-79
2023/08/07 09:55:22;;;;;;;;;6.67;3.00;;;;;22.43;100.00;101852.94;5031641;28;46990;-78
2023/08/07 09:57:48;;;;;;;;;4.00;4.00;;;;;22.47;100.00;101849.22;5037707;28;45421;-81
2023/08/07 10:00:15;;;;;;;;;5.33;3.00;;;;;22.45;100.00;101840.31;5038146;28;45531;-77
2023/08/07 10:02:43;;;;;;;;;5.00;3.00;;;;;22.58;100.00;101839.09;5033300;28;45630;-78
2023/08/07 10:05:12;;;;;;;;;4.67;3.00;;;;;22.78;100.00;101835.09;5036274;28;45459;-77
2023/08/07 10:07:39;;;;;;;;;3.00;3.00;;;;;22.45;100.00;101843.91;5036547;28;46030;-78
2023/08/07 10:10:05;;;;;;;;;3.00;2.00;;;;;22.41;100.00;101844.88;5037866;28;45346;-78
2023/08/07 10:12:31;;;;;;;;;3.00;2.00;;;;;22.45;100.00;101825.06;5037579;28;45449;-79
2023/08/07 10:14:58;;;;;;;;;2.67;2.67;;;;;22.58;100.00;101824.75;5040820;28;47408;-78
2023/08/07 10:17:24;;;;;;;;;5.00;4.00;;;;;22.65;100.00;101821.91;5037762;28;45477;-77
2023/08/07 10:19:51;;;;;;;;;2.00;2.00;;;;;22.85;100.00;101815.16;5035837;28;45249;-78
2023/08/07 10:22:17;;;;;;;;;2.33;1.00;;;;;23.06;100.00;101829.94;5034048;28;45548;-77
2023/08/07 10:24:43;;;;;;;;;2.33;2.33;;;;;23.03;100.00;101825.53;5034587;28;46405;-79
2023/08/07 10:27:10;;;;;;;;;4.00;3.00;;;;;23.10;100.00;101820.84;5036594;28;45299;-80
2023/08/07 10:29:36;;;;;;;;;3.00;3.00;;;;;23.16;100.00;101818.00;5036423;28;45439;-78
2023/08/07 10:32:02;;;;;;;;;2.00;2.00;;;;;23.19;100.00;101815.25;5036364;28;63743;-77
2023/08/07 10:34:33;;;;;;;;;5.00;3.00;;;;;23.23;100.00;101814.25;5035867;28;47357;-78
2023/08/07 10:36:59;;;;;;;;;2.67;1.00;;;;;23.31;100.00;101814.91;5037075;28;45502;-80
2023/08/07 10:39:24;;;;;;;;;2.67;2.00;;;;;23.26;100.00;101806.06;5036629;28;64677;-79
2023/08/07 10:41:54;;;;;;;;;2.67;1.67;;;;;23.27;100.00;101805.13;5037694;28;45176;-77
2023/08/07 10:44:47;;;;;;;;;3.00;3.00;;;;;23.40;100.00;101806.59;5037437;28;46604;-77
2023/08/07 10:47:13;;;;;;;;;1.33;1.33;;;;;23.51;100.00;101814.38;5030268;28;45326;-78
2023/08/07 10:49:38;;;;;;;;;4.00;3.00;;;;;23.56;100.00;101808.88;5035909;28;63591;-77
2023/08/07 10:52:16;;;;;;;;;3.33;3.33;;;;;23.55;100.00;101809.81;5037614;28;45279;-79
2023/08/07 10:54:46;;;;;;;;;4.33;2.00;;;;;23.59;100.00;101806.06;5036510;28;47170;-78
2023/08/07 10:57:16;;;;;;;;;4.67;2.00;;;;;23.75;100.00;101802.94;5031314;28;45385;-78
2023/08/07 10:59:49;;;;;;;;;1.00;1.00;;;;;23.87;100.00;101796.34;5030221;28;45477;-79
2023/08/07 11:02:23;;;;;;;;;3.00;2.00;;;;;23.94;100.00;101806.00;5036925;28;45470;-80
2023/08/07 11:04:48;;;;;;;;;4.67;3.00;;;;;24.05;100.00;101794.91;5029982;28;46942;-77
2023/08/07 11:07:24;;;;;;;;;4.00;4.00;;;;;24.10;100.00;101792.94;5035647;28;70023;-78
2023/08/07 11:09:50;;;;;;;;;3.00;3.00;;;;;24.11;100.00;101804.63;5029512;28;45406;-78
2023/08/07 11:12:15;;;;;;;;;2.00;2.00;;;;;24.24;100.00;101808.75;5036770;28;45485;-78